Time;durP1;ratioP1;P1;durP2;ratioP2;P2;SDS_P1;SDS_P2;PMS_P1;PMS_P2;Temp;Humidity;BMP_temperature;BMP_pressure;BME280_temperature;BME280_humidity;BME280_pressure;Samples;Min_cycle;Max_cycle;Signal;HPM_P1;HPM_P2
2023/05/29 00:00:31;;;;;;;4.88;2.55;;;17.20;97.00;;;;;;5124272;28;20213;-79
2023/05/29 00:02:59;;;;;;;3.80;3.05;;;16.80;97.50;;;;;;5125369;28;20208;-79
2023/05/29 00:05:26;;;;;;;5.78;2.75;;;16.90;98.10;;;;;;5119471;28;20199;-79
2023/05/29 00:07:55;;;;;;;6.75;3.00;;;17.00;98.10;;;;;;5125964;28;20204;-78
2023/05/29 00:10:22;;;;;;;5.88;2.63;;;17.10;98.10;;;;;;5126815;28;20220;-79
2023/05/29 00:12:50;;;;;;;3.78;2.58;;;17.00;97.90;;;;;;5113575;28;20193;-78
2023/05/29 00:15:18;;;;;;;4.50;2.80;;;17.10;98.10;;;;;;5119046;28;20200;-79
2023/05/29 00:17:46;;;;;;;3.88;2.75;;;17.00;98.20;;;;;;5120567;28;20201;-79
2023/05/29 00:20:15;;;;;;;5.13;2.95;;;17.00;98.70;;;;;;5124189;28;20224;-79
2023/05/29 00:22:43;;;;;;;3.63;2.58;;;17.00;99.00;;;;;;5118817;28;20201;-79
2023/05/29 00:25:12;;;;;;;5.53;2.70;;;17.10;98.90;;;;;;5113900;28;20184;-79
2023/05/29 00:27:40;;;;;;;2.55;2.33;;;17.00;99.40;;;;;;5119387;28;20195;-79
2023/05/29 00:30:08;;;;;;;4.88;2.90;;;16.80;99.90;;;;;;5124249;28;20212;-79
2023/05/29 00:32:36;;;;;;;3.50;2.55;;;16.70;99.90;;;;;;5127065;28;20201;-79
2023/05/29 00:35:03;;;;;;;4.82;2.75;;;16.60;99.90;;;;;;5115868;28;20195;-79
2023/05/29 00:37:31;;;;;;;3.28;2.55;;;16.60;99.90;;;;;;5117059;28;20192;-78
2023/05/29 00:39:58;;;;;;;4.60;2.30;;;16.60;99.90;;;;;;5121834;28;20224;-79
2023/05/29 00:42:27;;;;;;;4.82;2.50;;;16.60;99.90;;;;;;5118681;28;20207;-79
2023/05/29 00:44:54;;;;;;;5.13;2.70;;;16.50;99.90;;;;;;5120133;28;20215;-79
2023/05/29 00:47:22;;;;;;;5.00;2.70;;;16.40;99.90;;;;;;5127840;28;20200;-79
2023/05/29 00:49:51;;;;;;;4.88;2.67;;;16.30;99.90;;;;;;5124211;28;20216;-79
2023/05/29 00:52:19;;;;;;;5.10;2.50;;;16.30;99.90;;;;;;5120958;28;20201;-79
2023/05/29 00:54:47;;;;;;;4.22;2.35;;;16.20;99.90;;;;;;5123584;27;20196;-79
2023/05/29 00:57:17;;;;;;;4.15;2.70;;;16.10;99.90;;;;;;5117339;28;20200;-78
2023/05/29 00:59:48;;;;;;;6.28;2.85;;;15.80;99.90;;;;;;5118655;28;20410;-79
2023/05/29 01:02:16;;;;;;;4.28;2.40;;;15.80;99.90;;;;;;5126888;28;20199;-79
2023/05/29 01:04:45;;;;;;;4.65;2.47;;;15.90;99.90;;;;;;5120758;28;20298;-79
2023/05/29 01:07:13;;;;;;;5.43;2.80;;;15.70;99.90;;;;;;5123402;28;20200;-79
2023/05/29 01:09:42;;;;;;;5.95;2.70;;;15.70;99.90;;;;;;5113936;28;20216;-79
2023/05/29 01:12:20;;;;;;;5.85;2.58;;;15.70;99.90;;;;;;5123076;28;20199;-78
2023/05/29 01:15:15;;;;;;;3.97;2.17;;;15.60;99.90;;;;;;5104816;28;20193;-78
2023/05/29 01:17:57;;;;;;;4.85;2.60;;;15.50;99.90;;;;;;5119814;28;20195;-79
2023/05/29 01:20:34;;;;;;;7.75;2.83;;;15.40;99.90;;;;;;5118911;28;20223;-81
2023/05/29 01:23:27;;;;;;;5.68;2.72;;;15.40;99.90;;;;;;5121431;28;20214;-80
2023/05/29 01:26:08;;;;;;;6.53;2.58;;;15.50;99.90;;;;;;5112968;28;20196;-81
2023/05/29 01:28:43;;;;;;;6.55;2.88;;;15.60;99.90;;;;;;5114450;28;20208;-80
2023/05/29 01:31:13;;;;;;;5.00;2.63;;;15.50;99.90;;;;;;5121847;28;20224;-81
2023/05/29 01:33:41;;;;;;;6.43;3.70;;;15.40;99.90;;;;;;5123057;28;20266;-81
2023/05/29 01:36:10;;;;;;;6.03;2.60;;;15.40;99.90;;;;;;5118593;28;20191;-81
2023/05/29 01:38:38;;;;;;;5.22;2.50;;;15.30;99.90;;;;;;5119876;28;20202;-81
2023/05/29 01:41:06;;;;;;;6.95;2.88;;;15.30;99.90;;;;;;5117161;28;20231;-81
2023/05/29 01:43:34;;;;;;;5.28;2.53;;;15.20;99.90;;;;;;5112642;28;20203;-81
2023/05/29 01:46:03;;;;;;;5.82;2.47;;;15.20;99.90;;;;;;5106624;28;20204;-80
2023/05/29 01:48:31;;;;;;;5.35;2.83;;;15.20;99.90;;;;;;5115373;28;20196;-80
2023/05/29 01:50:59;;;;;;;7.22;3.67;;;15.10;99.90;;;;;;5111773;28;20216;-80
2023/05/29 01:53:27;;;;;;;7.15;2.80;;;14.90;99.90;;;;;;5116694;28;20216;-81
2023/05/29 01:55:55;;;;;;;7.55;2.45;;;14.90;99.90;;;;;;5110151;28;20220;-81
2023/05/29 01:58:24;;;;;;;8.82;2.88;;;14.90;99.90;;;;;;5114757;28;20200;-81
2023/05/29 02:00:51;;;;;;;7.05;2.85;;;14.80;99.90;;;;;;5112509;28;20212;-80
2023/05/29 02:03:20;;;;;;;9.15;3.00;;;14.70;99.90;;;;;;5117446;28;20192;-81
2023/05/29 02:05:48;;;;;;;6.40;2.75;;;14.70;99.90;;;;;;5110841;28;20212;-80
2023/05/29 02:08:15;;;;;;;6.65;2.67;;;14.60;99.90;;;;;;5115369;28;20204;-80
2023/05/29 02:10:43;;;;;;;8.95;2.50;;;14.60;99.90;;;;;;5116204;28;20226;-80
2023/05/29 02:13:10;;;;;;;8.43;2.97;;;14.60;99.90;;;;;;5107996;28;20208;-81
2023/05/29 02:15:38;;;;;;;7.00;3.00;;;14.60;99.90;;;;;;5108291;28;20188;-80
2023/05/29 02:18:05;;;;;;;9.32;3.15;;;14.60;99.90;;;;;;5106253;28;20200;-80
2023/05/29 02:20:34;;;;;;;9.07;3.08;;;14.60;99.90;;;;;;5116559;28;20227;-80
2023/05/29 02:23:02;;;;;;;7.45;2.70;;;14.70;99.90;;;;;;5133245;27;20700;-80
2023/05/29 02:25:29;;;;;;;5.68;2.72;;;14.70;99.90;;;;;;5110608;28;20231;-80
2023/05/29 02:27:57;;;;;;;9.10;2.60;;;14.60;99.90;;;;;;5112423;28;20201;-80
2023/05/29 02:30:25;;;;;;;6.53;2.88;;;14.70;99.90;;;;;;5112354;28;21951;-80
2023/05/29 02:32:52;;;;;;;9.52;2.90;;;14.70;99.90;;;;;;5115047;28;20201;-81
2023/05/29 02:35:22;;;;;;;8.27;2.53;;;14.60;99.90;;;;;;5115524;28;20189;-80
2023/05/29 02:37:51;;;;;;;7.68;2.65;;;14.50;99.90;;;;;;5114017;28;20193;-80
2023/05/29 02:40:19;;;;;;;8.48;2.55;;;14.40;99.90;;;;;;5110527;28;20216;-80
2023/05/29 02:42:47;;;;;;;7.20;2.67;;;14.20;99.90;;;;;;5105442;28;20200;-80
2023/05/29 02:45:14;;;;;;;9.55;2.60;;;14.00;99.90;;;;;;5117210;28;20212;-80
2023/05/29 02:47:42;;;;;;;9.98;2.95;;;14.20;99.90;;;;;;5117633;28;20208;-80
2023/05/29 02:50:10;;;;;;;5.93;2.55;;;14.10;99.90;;;;;;5108084;28;20217;-80
2023/05/29 02:52:37;;;;;;;11.82;2.88;;;14.00;99.90;;;;;;5106714;28;20196;-81
2023/05/29 02:55:07;;;;;;;11.30;2.88;;;14.20;99.90;;;;;;5119967;28;20212;-80
2023/05/29 02:57:35;;;;;;;13.45;3.70;;;14.10;99.90;;;;;;5115519;28;20197;-80
2023/05/29 03:00:07;;;;;;;10.25;2.55;;;14.10;99.90;;;;;;5120760;28;20212;-81
2023/05/29 03:02:34;;;;;;;7.15;2.42;;;13.80;99.90;;;;;;5117994;28;20200;-80
2023/05/29 03:05:02;;;;;;;6.95;2.53;;;14.00;99.90;;;;;;5111426;28;20201;-81
2023/05/29 03:07:29;;;;;;;7.43;2.63;;;14.00;99.90;;;;;;5123433;28;20188;-80
2023/05/29 03:09:57;;;;;;;7.05;2.22;;;14.10;99.90;;;;;;5116956;28;20212;-80
2023/05/29 03:12:27;;;;;;;9.07;3.13;;;14.10;99.90;;;;;;5117299;28;20219;-80
2023/05/29 03:14:56;;;;;;;6.05;3.00;;;14.10;99.90;;;;;;5115895;28;20188;-80
2023/05/29 03:17:23;;;;;;;8.68;2.47;;;13.90;99.90;;;;;;5109828;28;20193;-80
2023/05/29 03:19:51;;;;;;;9.75;2.88;;;14.00;99.90;;;;;;5121372;28;20227;-80
2023/05/29 03:22:19;;;;;;;10.18;2.65;;;13.90;99.90;;;;;;5115179;28;20200;-79
2023/05/29 03:24:47;;;;;;;10.25;2.70;;;13.80;99.90;;;;;;5110244;28;20220;-80
2023/05/29 03:27:15;;;;;;;8.45;2.65;;;14.00;99.90;;;;;;5111457;28;20192;-79
2023/05/29 03:29:45;;;;;;;10.55;2.85;;;14.00;99.90;;;;;;5120900;28;20209;-80
2023/05/29 03:32:12;;;;;;;7.13;2.45;;;14.10;99.90;;;;;;5114665;28;20196;-80
2023/05/29 03:34:40;;;;;;;9.02;2.72;;;14.10;99.90;;;;;;5117738;27;20196;-80
2023/05/29 03:37:08;;;;;;;9.77;2.85;;;14.10;99.90;;;;;;5123230;28;20208;-78
2023/05/29 03:39:35;;;;;;;8.98;3.10;;;14.10;99.90;;;;;;5114342;28;20220;-80
2023/05/29 03:42:05;;;;;;;12.73;3.28;;;14.10;99.90;;;;;;5111999;28;20189;-80
2023/05/29 03:44:32;;;;;;;10.35;2.80;;;14.20;99.90;;;;;;5113583;28;20204;-78
2023/05/29 03:47:01;;;;;;;8.02;2.72;;;14.10;99.90;;;;;;5114346;28;20205;-78
2023/05/29 03:49:34;;;;;;;10.57;2.90;;;14.20;99.90;;;;;;5109679;28;20223;-78
2023/05/29 03:52:03;;;;;;;8.40;2.70;;;14.10;99.90;;;;;;5115933;28;20196;-78
2023/05/29 03:54:30;;;;;;;10.60;3.35;;;14.00;99.90;;;;;;5120324;28;20205;-78
2023/05/29 03:56:58;;;;;;;9.70;3.38;;;13.90;99.90;;;;;;5124617;27;20205;-78
2023/05/29 03:59:28;;;;;;;9.55;2.58;;;14.00;99.90;;;;;;5126336;28;20713;-77
2023/05/29 04:01:56;;;;;;;7.68;3.03;;;13.90;99.90;;;;;;5124192;28;20196;-80
2023/05/29 04:04:25;;;;;;;9.48;2.92;;;13.70;99.90;;;;;;5119373;28;20703;-80
2023/05/29 04:06:52;;;;;;;10.85;3.47;;;13.80;99.90;;;;;;5121321;28;20224;-80
2023/05/29 04:09:20;;;;;;;9.68;2.88;;;13.90;99.90;;;;;;5118904;27;20200;-79
2023/05/29 04:11:47;;;;;;;8.32;3.00;;;13.90;99.90;;;;;;5114235;28;20203;-80
2023/05/29 04:14:15;;;;;;;8.60;2.80;;;13.70;99.90;;;;;;5120730;28;20200;-79
2023/05/29 04:16:42;;;;;;;9.38;2.60;;;13.70;99.90;;;;;;5115737;27;20192;-79
2023/05/29 04:19:10;;;;;;;9.20;3.20;;;13.70;99.90;;;;;;5121562;28;20201;-80
2023/05/29 04:21:39;;;;;;;10.77;3.13;;;13.80;99.90;;;;;;5121513;28;20367;-80
2023/05/29 04:24:07;;;;;;;8.35;3.42;;;13.60;99.90;;;;;;5120831;28;20195;-80
2023/05/29 04:26:34;;;;;;;6.25;2.55;;;13.50;99.90;;;;;;5114760;28;20212;-80
2023/05/29 04:29:03;;;;;;;9.60;3.33;;;13.40;99.90;;;;;;5120338;28;20235;-80
2023/05/29 04:31:32;;;;;;;8.18;2.72;;;13.20;99.90;;;;;;5117902;27;20197;-80
2023/05/29 04:34:00;;;;;;;10.88;4.05;;;13.30;99.90;;;;;;5099916;28;20671;-80
2023/05/29 04:36:28;;;;;;;6.13;2.72;;;13.30;99.90;;;;;;5117762;28;20193;-80
2023/05/29 04:39:09;;;;;;;7.18;2.75;;;13.40;99.90;;;;;;5117231;28;20208;-80
2023/05/29 04:41:37;;;;;;;10.93;3.13;;;13.50;99.90;;;;;;5100150;28;20208;-80
2023/05/29 04:44:06;;;;;;;9.32;3.03;;;13.60;99.90;;;;;;5108881;28;20588;-80
2023/05/29 04:46:43;;;;;;;8.30;2.78;;;13.60;99.90;;;;;;5119069;28;20580;-80
2023/05/29 04:49:12;;;;;;;9.45;2.80;;;13.70;99.90;;;;;;5115413;28;20229;-80
2023/05/29 04:51:41;;;;;;;11.43;3.20;;;13.60;99.90;;;;;;5117715;28;20674;-80
2023/05/29 04:54:10;;;;;;;9.20;3.40;;;13.80;99.90;;;;;;5113600;28;20208;-80
2023/05/29 04:56:39;;;;;;;11.90;3.45;;;13.70;99.90;;;;;;5102940;28;20197;-80
2023/05/29 04:59:08;;;;;;;10.27;3.17;;;13.70;99.90;;;;;;5110334;28;20197;-80
2023/05/29 05:01:36;;;;;;;10.35;2.97;;;13.80;99.90;;;;;;5113050;27;20562;-80
2023/05/29 05:04:03;;;;;;;13.43;3.38;;;13.90;99.90;;;;;;5118265;28;20203;-80
2023/05/29 05:06:31;;;;;;;9.80;3.25;;;13.70;99.90;;;;;;5120300;28;20217;-80
2023/05/29 05:08:59;;;;;;;11.75;2.85;;;13.70;99.90;;;;;;5120150;28;20200;-80
2023/05/29 05:11:28;;;;;;;9.10;3.28;;;13.80;99.90;;;;;;5120484;28;20217;-82
2023/05/29 05:13:55;;;;;;;11.27;3.00;;;13.70;99.90;;;;;;5119575;28;20200;-82
2023/05/29 05:16:23;;;;;;;9.18;2.97;;;13.80;99.90;;;;;;5119688;28;20215;-82
2023/05/29 05:18:51;;;;;;;8.27;2.85;;;13.70;99.90;;;;;;5119730;28;20600;-82
2023/05/29 05:21:18;;;;;;;10.48;2.85;;;13.90;99.90;;;;;;5118641;27;20227;-82
2023/05/29 05:23:47;;;;;;;8.10;2.97;;;14.10;99.90;;;;;;5120114;28;20203;-82
2023/05/29 05:26:14;;;;;;;11.00;3.17;;;13.60;99.90;;;;;;5119437;28;20213;-82
2023/05/29 05:28:43;;;;;;;13.02;3.25;;;13.50;99.90;;;;;;5120105;28;20215;-82
2023/05/29 05:31:11;;;;;;;7.63;3.05;;;13.00;99.90;;;;;;5102046;28;20586;-82
2023/05/29 05:33:40;;;;;;;11.35;3.25;;;13.50;99.90;;;;;;5106215;28;20219;-83
2023/05/29 05:36:07;;;;;;;10.15;3.33;;;13.60;99.90;;;;;;5116992;28;20196;-84
2023/05/29 05:38:35;;;;;;;7.85;2.70;;;13.90;99.90;;;;;;5122108;28;20197;-84
2023/05/29 05:41:03;;;;;;;13.27;2.88;;;13.90;99.90;;;;;;5121788;28;20227;-84
2023/05/29 05:43:33;;;;;;;8.27;3.08;;;14.00;99.90;;;;;;5116435;28;20197;-83
2023/05/29 05:46:10;;;;;;;11.00;3.08;;;13.90;99.90;;;;;;5113963;28;20216;-84
2023/05/29 05:48:40;;;;;;;8.52;3.03;;;14.00;99.90;;;;;;5120210;28;20547;-83
2023/05/29 05:51:11;;;;;;;9.75;2.88;;;14.00;99.90;;;;;;5104789;28;20227;-84
2023/05/29 05:53:39;;;;;;;8.48;2.40;;;14.00;99.90;;;;;;5107378;28;20212;-83
2023/05/29 05:56:13;;;;;;;11.45;2.75;;;14.00;99.90;;;;;;5112486;28;20203;-83
2023/05/29 05:58:41;;;;;;;6.38;2.15;;;14.00;99.90;;;;;;5114170;27;20211;-83
2023/05/29 06:01:11;;;;;;;9.88;2.80;;;14.10;99.90;;;;;;5114060;28;20228;-83
2023/05/29 06:03:38;;;;;;;10.50;2.80;;;14.00;99.90;;;;;;5105490;28;20543;-83
2023/05/29 06:06:08;;;;;;;9.52;2.95;;;13.70;99.90;;;;;;5108239;28;20215;-84
2023/05/29 06:08:37;;;;;;;7.50;2.72;;;14.00;99.90;;;;;;5125853;27;20204;-83
2023/05/29 06:11:05;;;;;;;10.57;2.75;;;14.00;99.90;;;;;;5111971;28;20590;-83
2023/05/29 06:13:34;;;;;;;9.00;2.90;;;14.00;99.90;;;;;;5112565;28;20200;-83
2023/05/29 06:16:08;;;;;;;8.32;3.08;;;14.10;99.90;;;;;;5103648;28;20199;-83
2023/05/29 06:18:38;;;;;;;8.80;2.83;;;14.10;99.90;;;;;;5104043;28;20193;-83
2023/05/29 06:21:09;;;;;;;8.07;2.55;;;14.30;99.90;;;;;;5117830;28;20223;-83
2023/05/29 06:23:41;;;;;;;13.57;4.47;;;14.40;99.90;;;;;;5113288;27;20199;-83
2023/05/29 06:26:09;;;;;;;9.98;3.30;;;14.50;99.90;;;;;;5107435;28;20220;-83
2023/05/29 06:28:36;;;;;;;9.57;2.90;;;14.50;99.90;;;;;;5112248;28;20211;-83
2023/05/29 06:31:04;;;;;;;7.53;2.40;;;14.60;99.90;;;;;;5115018;28;20227;-83
2023/05/29 06:33:31;;;;;;;9.40;2.67;;;14.70;99.90;;;;;;5111987;28;20219;-83
2023/05/29 06:36:00;;;;;;;10.18;2.85;;;14.40;99.90;;;;;;5117497;28;20196;-83
2023/05/29 06:38:28;;;;;;;7.50;2.55;;;14.60;99.90;;;;;;5108810;28;20203;-83
2023/05/29 06:40:55;;;;;;;10.25;2.35;;;14.70;99.90;;;;;;5107754;28;20216;-83
2023/05/29 06:43:23;;;;;;;11.73;2.97;;;14.80;99.90;;;;;;5112237;28;20208;-83
2023/05/29 06:45:50;;;;;;;7.15;2.53;;;14.80;99.90;;;;;;5119874;28;20203;-83
2023/05/29 06:48:18;;;;;;;7.50;3.10;;;14.90;99.90;;;;;;5116826;28;20200;-83
2023/05/29 06:50:48;;;;;;;6.82;2.45;;;14.90;99.90;;;;;;5098342;28;20229;-83
2023/05/29 06:53:37;;;;;;;10.18;2.80;;;14.90;99.90;;;;;;5113938;28;20208;-83
2023/05/29 06:56:05;;;;;;;8.32;2.90;;;14.90;99.90;;;;;;5098139;28;20200;-83
2023/05/29 06:58:34;;;;;;;7.28;2.47;;;14.70;99.90;;;;;;5109398;28;20202;-84
2023/05/29 07:01:01;;;;;;;11.25;2.80;;;14.80;99.90;;;;;;5101614;28;20212;-82
2023/05/29 07:03:34;;;;;;;9.63;3.08;;;14.70;99.90;;;;;;5112975;28;20208;-83
2023/05/29 07:06:04;;;;;;;8.77;2.53;;;14.90;99.90;;;;;;5115045;28;20192;-83
2023/05/29 07:08:32;;;;;;;7.40;2.63;;;15.10;99.90;;;;;;5109548;28;20197;-82
2023/05/29 07:11:02;;;;;;;8.35;2.58;;;15.30;99.90;;;;;;5109788;28;20212;-84
2023/05/29 07:13:29;;;;;;;9.43;3.70;;;15.30;99.90;;;;;;5107542;28;20193;-84
2023/05/29 07:15:57;;;;;;;7.82;2.80;;;15.30;99.90;;;;;;5109415;28;20200;-84
2023/05/29 07:18:31;;;;;;;10.85;2.72;;;15.20;99.90;;;;;;5114761;27;20188;-83
2023/05/29 07:21:01;;;;;;;6.47;2.42;;;15.50;99.90;;;;;;5109327;28;20219;-83
2023/05/29 07:23:30;;;;;;;8.18;2.83;;;15.40;99.90;;;;;;5107935;28;20208;-83
2023/05/29 07:25:58;;;;;;;6.82;3.08;;;15.40;99.90;;;;;;5118284;28;20196;-83
2023/05/29 07:28:30;;;;;;;10.50;3.10;;;15.40;99.90;;;;;;5111037;28;20208;-83
2023/05/29 07:30:58;;;;;;;9.25;2.78;;;15.60;99.90;;;;;;5106171;28;20217;-84
2023/05/29 07:33:26;;;;;;;8.27;2.75;;;15.60;99.90;;;;;;5115018;27;20211;-84
2023/05/29 07:35:56;;;;;;;9.50;2.55;;;15.60;99.90;;;;;;5115263;28;20196;-84
2023/05/29 07:38:23;;;;;;;7.20;2.45;;;15.70;99.90;;;;;;5105227;28;20204;-83
2023/05/29 07:40:51;;;;;;;8.20;2.80;;;15.60;99.90;;;;;;5105930;28;20232;-84
2023/05/29 07:43:51;;;;;;;6.20;2.72;;;15.70;99.90;;;;;;5103577;28;20196;-84
2023/05/29 07:46:20;;;;;;;11.30;3.03;;;15.60;99.90;;;;;;5105107;28;20566;-84
2023/05/29 07:48:50;;;;;;;8.38;2.67;;;15.40;99.90;;;;;;5104636;28;20197;-84
2023/05/29 07:51:19;;;;;;;7.43;2.53;;;15.50;99.90;;;;;;5104328;28;20216;-83
2023/05/29 07:53:48;;;;;;;10.32;3.17;;;15.50;99.90;;;;;;5099246;28;20209;-83
2023/05/29 07:56:17;;;;;;;7.72;2.80;;;15.50;99.90;;;;;;5109465;28;20204;-82
2023/05/29 07:58:47;;;;;;;7.10;2.90;;;15.30;99.90;;;;;;5098682;28;20197;-80
2023/05/29 08:01:15;;;;;;;9.15;3.08;;;15.70;99.90;;;;;;5104407;28;20204;-81
2023/05/29 08:03:43;;;;;;;8.43;2.90;;;15.90;99.90;;;;;;5100152;28;20211;-81
2023/05/29 08:06:43;;;;;;;9.00;2.80;;;16.00;99.90;;;;;;5100615;28;20215;-81
2023/05/29 08:09:23;;;;;;;9.10;2.47;;;15.90;99.90;;;;;;5110889;28;20197;-81
2023/05/29 08:11:50;;;;;;;6.60;2.83;;;16.10;99.90;;;;;;5114043;28;20566;-81
2023/05/29 08:14:19;;;;;;;7.90;3.05;;;16.10;99.90;;;;;;5114180;28;20669;-82
2023/05/29 08:16:47;;;;;;;8.23;3.38;;;16.20;99.90;;;;;;5114516;28;20188;-81
2023/05/29 08:19:14;;;;;;;7.15;3.05;;;16.30;99.90;;;;;;5114236;28;20196;-81
2023/05/29 08:21:42;;;;;;;13.63;4.20;;;16.40;99.90;;;;;;5100393;28;20204;-81
2023/05/29 08:24:09;;;;;;;9.82;3.13;;;16.60;99.90;;;;;;5104599;28;20218;-81
2023/05/29 08:26:37;;;;;;;8.95;3.15;;;16.60;99.90;;;;;;5114710;28;20196;-82
2023/05/29 08:29:04;;;;;;;8.25;3.22;;;16.40;99.90;;;;;;5114507;28;20231;-81
2023/05/29 08:31:33;;;;;;;8.93;3.38;;;16.60;99.90;;;;;;5108179;28;20215;-81
2023/05/29 08:34:00;;;;;;;11.05;3.13;;;16.70;99.90;;;;;;5108229;27;20208;-82
2023/05/29 08:36:28;;;;;;;8.45;3.22;;;16.60;99.90;;;;;;5115357;28;20544;-82
2023/05/29 08:38:55;;;;;;;6.68;2.70;;;16.70;99.90;;;;;;5110423;28;20207;-79
2023/05/29 08:41:29;;;;;;;5.28;2.45;;;16.70;99.90;;;;;;5121453;28;20216;-80
2023/05/29 08:44:00;;;;;;;11.10;2.55;;;16.80;99.90;;;;;;5128936;27;20192;-80
2023/05/29 08:46:28;;;;;;;6.93;2.83;;;16.40;99.90;;;;;;5117803;28;20212;-80
2023/05/29 08:49:00;;;;;;;9.82;3.22;;;16.70;99.90;;;;;;5116596;28;20220;-80
2023/05/29 08:51:32;;;;;;;7.78;2.90;;;16.70;99.90;;;;;;5108147;28;20216;-80
2023/05/29 08:54:00;;;;;;;7.55;2.97;;;17.00;99.90;;;;;;5112137;28;20211;-79
2023/05/29 08:56:28;;;;;;;8.27;3.03;;;16.60;99.90;;;;;;5118127;28;20205;-80
2023/05/29 08:58:57;;;;;;;8.57;2.92;;;16.70;99.90;;;;;;5108467;28;20201;-82
2023/05/29 09:01:26;;;;;;;7.57;2.85;;;16.80;99.90;;;;;;5108668;28;20225;-80
2023/05/29 09:03:54;;;;;;;9.70;2.80;;;16.80;99.90;;;;;;5115914;27;20200;-80
2023/05/29 09:06:25;;;;;;;6.60;2.95;;;16.80;99.90;;;;;;5106742;28;20185;-80
2023/05/29 09:08:53;;;;;;;6.15;2.42;;;16.80;99.90;;;;;;5096783;27;20213;-80
2023/05/29 09:11:21;;;;;;;10.00;2.80;;;17.00;99.90;;;;;;5110629;28;20724;-79
2023/05/29 09:13:49;;;;;;;6.10;2.75;;;17.00;99.90;;;;;;5110089;28;20199;-80
2023/05/29 09:16:18;;;;;;;8.75;2.97;;;17.10;99.90;;;;;;5099130;28;20212;-80
2023/05/29 09:18:45;;;;;;;9.82;3.00;;;17.00;99.90;;;;;;5110086;28;20219;-80
2023/05/29 09:21:29;;;;;;;7.40;2.40;;;17.10;99.90;;;;;;5108924;28;20599;-81
2023/05/29 09:24:04;;;;;;;5.60;2.10;;;17.50;99.90;;;;;;5115274;28;20196;-81
2023/05/29 09:26:32;;;;;;;6.82;2.75;;;17.70;99.90;;;;;;5107297;28;20197;-82
2023/05/29 09:29:05;;;;;;;7.72;2.85;;;17.70;99.90;;;;;;5113644;28;20212;-83
2023/05/29 09:31:32;;;;;;;5.68;2.47;;;17.90;99.90;;;;;;5102308;28;20197;-83
2023/05/29 09:34:02;;;;;;;6.88;3.10;;;17.90;99.70;;;;;;5113047;28;20204;-84
2023/05/29 09:36:32;;;;;;;8.77;2.70;;;17.60;99.90;;;;;;5108982;28;20200;-84
2023/05/29 09:39:04;;;;;;;8.43;2.53;;;17.70;99.90;;;;;;5104116;28;20189;-83
2023/05/29 09:41:32;;;;;;;6.43;2.70;;;18.10;99.70;;;;;;5115122;28;20189;-83
2023/05/29 09:44:03;;;;;;;5.47;2.33;;;18.00;99.10;;;;;;5104999;28;20196;-83
2023/05/29 09:46:35;;;;;;;9.02;3.00;;;18.20;99.40;;;;;;5109470;28;20204;-84
2023/05/29 09:49:03;;;;;;;11.30;3.00;;;18.00;99.80;;;;;;5107516;28;20209;-83
2023/05/29 09:51:31;;;;;;;7.70;2.92;;;18.00;98.60;;;;;;5108568;28;20220;-83
2023/05/29 09:54:01;;;;;;;9.68;3.47;;;18.10;98.50;;;;;;5107076;28;20208;-84
2023/05/29 09:56:30;;;;;;;7.10;2.92;;;18.50;99.10;;;;;;5115876;28;20200;-80
2023/05/29 09:58:59;;;;;;;6.47;2.85;;;18.20;98.10;;;;;;5115271;27;20250;-81
2023/05/29 10:01:28;;;;;;;7.93;2.63;;;18.40;98.20;;;;;;5108643;28;20220;-79
2023/05/29 10:03:56;;;;;;;10.80;3.15;;;18.60;98.00;;;;;;5110967;28;20200;-81
2023/05/29 10:06:23;;;;;;;10.38;3.20;;;18.40;97.90;;;;;;5112747;28;20192;-80
2023/05/29 10:08:55;;;;;;;7.30;3.10;;;18.10;98.00;;;;;;5108252;28;20209;-79
2023/05/29 10:11:26;;;;;;;8.38;3.25;;;18.20;98.90;;;;;;5108415;28;20220;-79
2023/05/29 10:13:55;;;;;;;10.38;3.17;;;18.10;99.30;;;;;;5110901;28;20204;-79
2023/05/29 10:16:24;;;;;;;6.93;2.80;;;18.50;98.20;;;;;;5098190;28;20204;-78
2023/05/29 10:18:55;;;;;;;8.85;3.10;;;18.50;97.40;;;;;;5097219;28;20207;-79
2023/05/29 10:21:25;;;;;;;5.40;2.45;;;18.70;97.60;;;;;;5096812;28;20212;-79
2023/05/29 10:24:02;;;;;;;8.35;2.70;;;18.90;97.40;;;;;;5098618;28;20197;-79
2023/05/29 10:26:31;;;;;;;7.10;2.70;;;18.90;96.50;;;;;;5105626;28;20209;-79
2023/05/29 10:29:06;;;;;;;7.47;2.20;;;19.00;96.30;;;;;;5116960;28;20204;-79
2023/05/29 10:31:44;;;;;;;7.07;2.85;;;18.90;97.40;;;;;;5111469;28;20184;-79
2023/05/29 10:34:21;;;;;;;6.28;2.65;;;18.50;97.20;;;;;;5037773;28;20217;-79
2023/05/29 10:36:57;;;;;;;9.15;3.35;;;18.80;96.50;;;;;;5041555;28;20209;-77
2023/05/29 10:39:26;;;;;;;7.80;2.72;;;19.00;96.00;;;;;;5052334;28;20206;-79
2023/05/29 10:41:58;;;;;;;9.10;3.58;;;19.00;96.00;;;;;;5033410;28;20206;-79
2023/05/29 10:44:43;;;;;;;8.80;2.97;;;19.10;96.40;;;;;;5032333;28;20208;-80
2023/05/29 10:47:12;;;;;;;9.35;2.88;;;19.20;95.70;;;;;;5034415;28;20199;-80
2023/05/29 10:49:51;;;;;;;6.22;2.50;;;19.10;95.10;;;;;;5026729;28;20219;-80
2023/05/29 10:52:21;;;;;;;7.78;2.92;;;19.00;95.70;;;;;;5039627;28;20194;-80
2023/05/29 10:54:56;;;;;;;9.18;2.95;;;19.10;95.40;;;;;;5035382;28;20246;-80
2023/05/29 10:57:24;;;;;;;5.88;2.58;;;19.40;95.30;;;;;;5042980;28;20190;-79
2023/05/29 11:00:12;;;;;;;9.18;3.00;;;19.60;95.40;;;;;;5047287;28;20218;-80
2023/05/29 11:02:40;;;;;;;10.85;3.45;;;19.60;94.70;;;;;;5049408;28;20213;-78
2023/05/29 11:05:22;;;;;;;5.97;2.90;;;19.20;94.50;;;;;;5057397;28;20198;-78
2023/05/29 11:08:00;;;;;;;10.20;3.08;;;19.40;95.30;;;;;;5049809;28;20213;-79
2023/05/29 11:10:44;;;;;;;9.20;3.58;;;19.20;95.00;;;;;;5050619;28;20209;-80
2023/05/29 11:13:24;;;;;;;5.32;2.92;;;19.40;95.10;;;;;;5051081;28;20207;-80
2023/05/29 11:16:12;;;;;;;7.53;2.55;;;19.50;94.50;;;;;;5038174;28;20206;-80
2023/05/29 11:18:41;;;;;;;7.85;3.05;;;19.60;94.40;;;;;;5030736;28;20191;-79
2023/05/29 11:21:30;;;;;;;9.85;3.08;;;20.00;94.30;;;;;;5047032;28;20234;-80
2023/05/29 11:24:02;;;;;;;8.02;2.97;;;20.10;94.20;;;;;;5050514;28;20207;-79
2023/05/29 11:26:32;;;;;;;6.65;3.10;;;20.10;94.00;;;;;;5036436;28;20203;-80
2023/05/29 11:29:00;;;;;;;8.35;3.33;;;19.40;94.00;;;;;;5028187;28;20215;-79
2023/05/29 11:31:30;;;;;;;8.75;2.60;;;19.50;94.30;;;;;;5027169;28;20234;-80
2023/05/29 11:34:02;;;;;;;6.80;3.08;;;19.50;93.90;;;;;;5021049;28;20207;-78
2023/05/29 11:36:33;;;;;;;7.10;2.53;;;19.80;93.60;;;;;;5029215;28;20206;-79
2023/05/29 11:39:02;;;;;;;8.05;2.88;;;20.00;93.70;;;;;;5033336;28;20191;-79
2023/05/29 11:41:31;;;;;;;7.57;2.83;;;19.50;94.80;;;;;;5036397;28;20222;-79
2023/05/29 11:43:59;;;;;;;7.88;3.35;;;19.90;94.80;;;;;;5046718;28;20210;-79
2023/05/29 11:46:28;;;;;;;5.95;2.40;;;20.10;93.80;;;;;;5032597;28;20203;-79
2023/05/29 11:48:55;;;;;;;8.05;2.42;;;19.80;94.20;;;;;;5037250;28;20215;-78
2023/05/29 11:51:23;;;;;;;10.90;2.72;;;19.80;95.00;;;;;;5032932;28;20219;-79
2023/05/29 11:53:57;;;;;;;7.00;2.53;;;20.00;93.10;;;;;;5041337;28;20213;-79
2023/05/29 11:56:25;;;;;;;6.20;2.72;;;20.40;93.70;;;;;;5040208;28;20199;-80
2023/05/29 11:58:56;;;;;;;7.75;3.22;;;20.60;92.50;;;;;;5039882;28;20672;-79
2023/05/29 12:01:24;;;;;;;5.53;2.67;;;20.60;92.20;;;;;;5034549;28;20214;-80
2023/05/29 12:03:54;;;;;;;6.30;2.83;;;20.50;92.10;;;;;;5052633;28;20204;-80
2023/05/29 12:06:35;;;;;;;6.15;2.50;;;20.60;91.70;;;;;;5039875;28;20210;-80
2023/05/29 12:09:04;;;;;;;5.85;2.45;;;20.70;91.90;;;;;;5036519;28;20241;-80
2023/05/29 12:11:31;;;;;;;6.63;2.50;;;20.70;92.20;;;;;;5032691;28;20230;-80
2023/05/29 12:14:01;;;;;;;6.55;2.83;;;20.50;92.90;;;;;;5036430;28;20640;-78
2023/05/29 12:16:31;;;;;;;5.80;2.60;;;20.90;93.30;;;;;;5059539;28;20203;-80
2023/05/29 12:18:59;;;;;;;5.97;2.67;;;20.90;92.80;;;;;;5051829;28;20558;-78
2023/05/29 12:21:28;;;;;;;6.55;2.40;;;21.00;92.10;;;;;;5036455;28;20218;-78
2023/05/29 12:23:56;;;;;;;6.97;2.33;;;21.30;91.70;;;;;;5038495;28;20199;-77
2023/05/29 12:26:25;;;;;;;7.45;2.70;;;20.90;91.80;;;;;;5035453;28;20199;-79
2023/05/29 12:28:53;;;;;;;5.13;2.22;;;21.50;91.20;;;;;;5034839;28;20199;-80
2023/05/29 12:31:31;;;;;;;6.97;2.97;;;21.40;91.00;;;;;;5037206;28;20242;-80
2023/05/29 12:34:03;;;;;;;5.68;2.58;;;21.30;91.40;;;;;;5039757;28;20187;-80
2023/05/29 12:36:32;;;;;;;7.78;2.70;;;21.50;91.50;;;;;;5035748;28;20203;-77
2023/05/29 12:39:00;;;;;;;10.35;2.92;;;21.50;90.90;;;;;;5032912;28;20195;-78
2023/05/29 12:41:29;;;;;;;8.07;2.78;;;21.80;90.60;;;;;;5034664;28;20227;-80
2023/05/29 12:43:57;;;;;;;8.88;2.50;;;21.90;90.60;;;;;;5030669;28;20654;-77
2023/05/29 12:46:43;;;;;;;8.23;2.53;;;21.50;91.00;;;;;;5028648;28;20673;-78
2023/05/29 12:49:14;;;;;;;5.43;2.45;;;21.60;89.90;;;;;;5040891;28;20215;-79
2023/05/29 12:51:42;;;;;;;4.20;2.10;;;21.70;90.40;;;;;;5034809;28;20199;-79
2023/05/29 12:54:11;;;;;;;7.20;2.72;;;21.80;90.10;;;;;;5069456;28;20203;-80
2023/05/29 12:56:40;;;;;;;5.47;2.45;;;21.60;89.70;;;;;;5038861;28;20198;-80
2023/05/29 12:59:08;;;;;;;4.95;2.70;;;21.90;88.90;;;;;;5038901;28;20214;-80